createdAt,value
2022-09-27T00:00:43.038Z,99056.16
2022-09-27T00:03:10.679Z,99049.72
2022-09-27T00:05:37.447Z,99055.47
2022-09-27T00:08:04.254Z,99053.06
2022-09-27T00:10:31.316Z,99053.75
2022-09-27T00:12:58.284Z,99052.72
2022-09-27T00:15:24.732Z,99056.28
2022-09-27T00:17:52.292Z,99058.59
2022-09-27T00:20:20.504Z,99048.69
2022-09-27T00:22:48.118Z,99052.53
2022-09-27T00:25:15.245Z,99052.84
2022-09-27T00:27:41.694Z,99049.63
2022-09-27T00:30:09.252Z,99043.56
2022-09-27T00:32:35.865Z,99052.91
2022-09-27T00:35:02.419Z,99052.13
2022-09-27T00:37:29.147Z,99052.72
2022-09-27T00:39:55.609Z,99048.69
2022-09-27T00:42:22.069Z,99052.63
2022-09-27T00:45:10.292Z,99048.03
2022-09-27T00:48:05.625Z,99047.56
2022-09-27T00:50:41.375Z,99047.91
2022-09-27T00:53:22.805Z,99035.22
2022-09-27T00:55:56.083Z,99041.75
2022-09-27T00:58:29.200Z,99036.34
2022-09-27T01:00:58.389Z,99041.06
2022-09-27T01:03:30.908Z,99044.53
2022-09-27T01:05:58.379Z,99036.91
2022-09-27T01:08:24.835Z,99044.91
2022-09-27T01:11:01.063Z,99046.19
2022-09-27T01:13:36.174Z,99047.19
2022-09-27T01:16:29.645Z,99050.00
2022-09-27T01:19:16.770Z,99044.78
2022-09-27T01:21:52.572Z,99049.63
2022-09-27T01:25:03.852Z,99051.50
2022-09-27T01:27:39.555Z,99042.81
2022-09-27T01:30:23.914Z,99048.25
2022-09-27T01:33:18.683Z,99038.88
2022-09-27T01:36:12.576Z,99039.13
2022-09-27T01:39:01.865Z,99042.13
2022-09-27T01:41:37.066Z,99035.97
2022-09-27T01:44:18.795Z,99035.19
2022-09-27T01:46:48.779Z,99033.09
2022-09-27T01:49:21.397Z,99034.16
2022-09-27T01:51:58.311Z,99031.50
2022-09-27T01:54:31.478Z,99027.47
2022-09-27T01:56:59.191Z,99025.94
2022-09-27T01:59:32.629Z,99027.59
2022-09-27T02:02:04.101Z,99025.41
2022-09-27T02:04:32.604Z,99017.53
2022-09-27T02:07:02.959Z,99022.38
2022-09-27T02:09:54.095Z,99016.50
2022-09-27T02:12:27.823Z,99019.28
2022-09-27T02:15:15.338Z,99011.31
2022-09-27T02:17:51.556Z,99003.09
2022-09-27T02:20:22.935Z,99002.19
2022-09-27T02:23:11.695Z,99001.00
2022-09-27T02:26:00.455Z,98998.47
2022-09-27T02:28:38.218Z,99008.88
2022-09-27T02:31:04.874Z,99002.41
2022-09-27T02:33:36.412Z,98999.75
2022-09-27T02:36:03.168Z,99004.16
2022-09-27T02:38:29.683Z,98999.53
2022-09-27T02:40:56.162Z,98999.53
2022-09-27T02:43:29.549Z,99003.69
2022-09-27T02:46:25.859Z,98999.28
2022-09-27T02:49:19.802Z,99001.13
2022-09-27T02:51:58.363Z,99002.19
2022-09-27T02:54:44.198Z,99009.09
2022-09-27T02:57:52.617Z,98995.59
2022-09-27T03:00:26.203Z,98995.94
2022-09-27T03:03:09.430Z,98996.88
2022-09-27T03:05:49.114Z,98997.78
2022-09-27T03:08:15.571Z,99002.19
2022-09-27T03:10:42.078Z,99001.94
2022-09-27T03:13:08.643Z,98999.06
2022-09-27T03:15:35.262Z,99005.16
2022-09-27T03:18:02.139Z,98996.19
2022-09-27T03:20:29.425Z,99002.28
2022-09-27T03:22:56.389Z,98991.31
2022-09-27T03:25:23.002Z,98993.75
2022-09-27T03:27:49.559Z,99000.06
2022-09-27T03:30:16.068Z,99000.06
2022-09-27T03:32:44.082Z,98989.44
2022-09-27T03:35:11.646Z,98992.09
2022-09-27T03:37:38.622Z,98987.16
2022-09-27T03:40:05.856Z,98989.81
2022-09-27T03:42:32.358Z,98987.97
2022-09-27T03:44:58.799Z,98986.34
2022-09-27T03:47:25.247Z,98987.06
2022-09-27T03:49:51.706Z,98982.06
2022-09-27T03:52:18.579Z,98981.25
2022-09-27T03:54:45.476Z,98989.22
2022-09-27T03:57:11.938Z,98987.63
2022-09-27T03:59:38.455Z,98986.00
2022-09-27T04:02:04.910Z,98981.97
2022-09-27T04:04:31.440Z,98983.34
2022-09-27T04:06:59.078Z,98984.19
2022-09-27T04:09:25.607Z,98986.13
2022-09-27T04:11:52.062Z,98980.00
2022-09-27T04:14:18.515Z,98982.22
2022-09-27T04:16:45.012Z,98981.16
2022-09-27T04:19:12.689Z,98979.88
2022-09-27T04:21:39.561Z,98983.94
2022-09-27T04:24:06.866Z,98977.13
2022-09-27T04:26:33.454Z,98985.09
2022-09-27T04:28:59.944Z,98978.72
2022-09-27T04:31:26.467Z,98979.19
2022-09-27T04:33:54.594Z,98979.78
2022-09-27T04:36:29.372Z,98983.34
2022-09-27T04:38:57.372Z,98984.63
2022-09-27T04:41:24.593Z,98981.97
2022-09-27T04:43:59.218Z,98984.03
2022-09-27T04:46:26.737Z,98983.47
2022-09-27T04:48:53.225Z,98985.09
2022-09-27T04:51:20.033Z,98985.66
2022-09-27T04:53:47.188Z,98983.22
2022-09-27T04:56:14.130Z,98988.31
2022-09-27T04:58:40.607Z,98988.91
2022-09-27T05:01:07.342Z,98988.91
2022-09-27T05:03:33.854Z,98987.53
2022-09-27T05:06:00.663Z,98984.88
2022-09-27T05:08:27.373Z,98981.50
2022-09-27T05:10:54.726Z,98989.94
2022-09-27T05:13:21.797Z,98979.88
2022-09-27T05:15:48.367Z,98985.56
2022-09-27T05:18:14.831Z,98985.78
2022-09-27T05:20:41.781Z,98979.66
2022-09-27T05:23:08.238Z,98984.72
2022-09-27T05:25:35.123Z,98989.00
2022-09-27T05:28:01.676Z,98992.00
2022-09-27T05:30:28.194Z,98991.19
2022-09-27T05:32:54.731Z,98986.34
2022-09-27T05:35:21.331Z,98993.28
2022-09-27T05:37:58.574Z,98986.25
2022-09-27T05:40:42.120Z,98994.22
2022-09-27T05:43:08.931Z,98998.59
2022-09-27T05:45:35.419Z,98997.78
2022-09-27T05:48:01.972Z,98994.31
2022-09-27T05:50:28.421Z,98991.66
2022-09-27T05:52:55.130Z,98994.44
2022-09-27T05:55:21.855Z,98985.41
2022-09-27T05:57:57.309Z,98991.56
2022-09-27T06:00:25.764Z,99000.91
2022-09-27T06:03:00.414Z,98993.72
2022-09-27T06:05:28.511Z,98992.47
2022-09-27T06:08:00.345Z,98995.69
2022-09-27T06:10:26.900Z,98998.69
2022-09-27T06:12:53.378Z,98997.88
2022-09-27T06:15:19.831Z,98999.47
2022-09-27T06:17:46.815Z,99000.06
2022-09-27T06:20:13.378Z,99001.09
2022-09-27T06:22:41.074Z,99005.38
2022-09-27T06:25:08.023Z,98999.03
2022-09-27T06:27:34.960Z,98997.97
2022-09-27T06:30:01.409Z,99002.25
2022-09-27T06:32:27.866Z,99002.59
2022-09-27T06:34:54.374Z,99017.25
2022-09-27T06:37:20.850Z,99008.00
2022-09-27T06:39:49.086Z,99008.00
2022-09-27T06:42:17.902Z,99011.03
2022-09-27T06:44:48.168Z,99012.53
2022-09-27T06:47:17.367Z,99017.63
2022-09-27T06:49:43.831Z,99016.56
2022-09-27T06:52:10.694Z,99022.22
2022-09-27T06:54:37.212Z,99021.66
2022-09-27T06:57:03.653Z,99024.63
2022-09-27T06:59:48.859Z,99026.00
2022-09-27T07:02:15.912Z,99033.53
2022-09-27T07:04:42.694Z,99035.28
2022-09-27T07:07:10.058Z,99032.63
2022-09-27T07:09:39.076Z,99036.91
2022-09-27T07:12:06.163Z,99038.50
2022-09-27T07:14:34.631Z,99038.28
2022-09-27T07:17:01.095Z,99039.19
2022-09-27T07:19:27.569Z,99036.53
2022-09-27T07:21:54.036Z,99041.25
2022-09-27T07:24:20.519Z,99045.06
2022-09-27T07:26:47.999Z,99045.41
2022-09-27T07:29:14.627Z,99052.56
2022-09-27T07:31:42.590Z,99049.44
2022-09-27T07:34:09.111Z,99051.66
2022-09-27T07:36:35.563Z,99053.25
2022-09-27T07:39:02.145Z,99057.28
2022-09-27T07:41:28.624Z,99067.69
2022-09-27T07:43:55.139Z,99071.16
2022-09-27T07:46:21.619Z,99073.59
2022-09-27T07:48:51.497Z,99065.34
2022-09-27T07:51:18.958Z,99065.63
2022-09-27T07:53:45.439Z,99061.91
2022-09-27T07:56:11.934Z,99065.47
2022-09-27T07:58:38.417Z,99075.88
2022-09-27T08:01:04.896Z,99072.19
2022-09-27T08:03:31.673Z,99075.38
2022-09-27T08:06:02.840Z,99075.97
2022-09-27T08:08:29.300Z,99074.38
2022-09-27T08:10:55.763Z,99080.72
2022-09-27T08:13:22.313Z,99077.50
2022-09-27T08:15:48.797Z,99088.47
2022-09-27T08:18:15.411Z,99086.88
2022-09-27T08:20:41.955Z,99088.47
2022-09-27T08:23:08.488Z,99090.31
2022-09-27T08:25:35.081Z,99094.94
2022-09-27T08:28:04.508Z,99094.13
2022-09-27T08:30:32.362Z,99099.47
2022-09-27T08:33:00.450Z,99100.00
2022-09-27T08:35:28.867Z,99100.59
2022-09-27T08:37:56.923Z,99105.44
2022-09-27T08:40:27.631Z,99101.38
2022-09-27T08:43:07.058Z,99096.41
2022-09-27T08:46:08.297Z,99106.47
2022-09-27T08:48:35.948Z,99100.44
2022-09-27T08:51:02.668Z,99104.72
2022-09-27T08:53:49.313Z,99109.00
2022-09-27T08:56:21.040Z,99112.25
2022-09-27T08:58:51.876Z,99104.34
2022-09-27T09:01:18.670Z,99110.47
2022-09-27T09:03:50.812Z,99112.91
2022-09-27T09:06:22.623Z,99110.25
2022-09-27T09:09:18.426Z,99108.97
2022-09-27T09:12:21.442Z,99111.94
2022-09-27T09:15:03.796Z,99117.75
2022-09-27T09:17:36.447Z,99118.91
2022-09-27T09:20:22.166Z,99119.78
2022-09-27T09:23:15.987Z,99117.84
2022-09-27T09:26:15.308Z,99121.78
2022-09-27T09:28:55.272Z,99120.19
2022-09-27T09:31:28.919Z,99123.88
2022-09-27T09:33:56.834Z,99119.72
2022-09-27T09:36:44.574Z,99126.97
2022-09-27T09:39:24.147Z,99125.13
2022-09-27T09:42:10.003Z,99128.94
2022-09-27T09:45:24.094Z,99121.66
2022-09-27T09:48:28.390Z,99123.03
2022-09-27T09:50:57.063Z,99125.13
2022-09-27T09:53:32.750Z,99126.28
2022-09-27T09:56:05.591Z,99129.50
2022-09-27T09:58:41.463Z,99127.16
2022-09-27T10:01:19.088Z,99130.53
2022-09-27T10:03:46.142Z,99128.44
2022-09-27T10:06:13.284Z,99129.91
2022-09-27T10:08:39.831Z,99129.09
2022-09-27T10:11:06.937Z,99128.63
2022-09-27T10:13:34.328Z,99130.81
2022-09-27T10:16:04.349Z,99134.06
2022-09-27T10:18:31.889Z,99147.38
2022-09-27T10:21:04.264Z,99136.16
2022-09-27T10:23:31.294Z,99133.50
2022-09-27T10:26:00.527Z,99133.81
2022-09-27T10:28:34.215Z,99140.78
2022-09-27T10:31:01.843Z,99136.16
2022-09-27T10:33:30.419Z,99135.00
2022-09-27T10:35:57.240Z,99137.97
2022-09-27T10:38:30.055Z,99131.94
2022-09-27T10:40:58.990Z,99136.09
2022-09-27T10:43:29.592Z,99131.09
2022-09-27T10:46:06.313Z,99134.31
2022-09-27T10:48:32.844Z,99145.13
2022-09-27T10:51:01.684Z,99139.59
2022-09-27T10:53:29.167Z,99154.84
2022-09-27T10:55:55.920Z,99142.97
2022-09-27T10:58:28.728Z,99147.59
2022-09-27T11:01:08.601Z,99146.59
2022-09-27T11:03:47.054Z,99141.78
2022-09-27T11:06:22.527Z,99144.50
2022-09-27T11:08:52.565Z,99148.25
2022-09-27T11:11:24.594Z,99142.91
2022-09-27T11:14:03.003Z,99147.28
2022-09-27T11:16:41.860Z,99144.63
2022-09-27T11:19:40.893Z,99148.50
2022-09-27T11:22:41.307Z,99152.38
2022-09-27T11:25:15.554Z,99155.53
2022-09-27T11:27:55.263Z,99151.56
2022-09-27T11:30:23.001Z,99151.41
2022-09-27T11:33:08.079Z,99147.59
2022-09-27T11:35:57.111Z,99153.28
2022-09-27T11:38:52.187Z,99152.94
2022-09-27T11:41:57.875Z,99154.81
2022-09-27T11:45:19.527Z,99161.00
2022-09-27T11:48:03.763Z,99151.47
2022-09-27T11:50:58.017Z,99161.78
2022-09-27T11:53:28.231Z,99147.69
2022-09-27T11:56:15.536Z,99152.31
2022-09-27T11:58:57.090Z,99157.44
2022-09-27T12:01:47.294Z,99155.03
2022-09-27T12:04:19.507Z,99161.47
2022-09-27T12:07:07.984Z,99155.25
2022-09-27T12:09:48.084Z,99157.50
2022-09-27T12:12:23.987Z,99160.97
2022-09-27T12:14:52.868Z,99156.75
2022-09-27T12:17:47.018Z,99160.31
2022-09-27T12:20:28.037Z,99166.59
2022-09-27T12:23:05.149Z,99166.88
2022-09-27T12:25:37.601Z,99162.28
2022-09-27T12:28:28.495Z,99162.63
2022-09-27T12:31:24.474Z,99157.69
2022-09-27T12:34:02.403Z,99162.03
2022-09-27T12:36:38.442Z,99162.59
2022-09-27T12:39:17.729Z,99157.59
2022-09-27T12:42:01.065Z,99165.28
2022-09-27T12:44:36.986Z,99167.88
2022-09-27T12:47:34.243Z,99177.13
2022-09-27T12:50:07.593Z,99169.97
2022-09-27T12:52:43.603Z,99175.38
2022-09-27T12:55:23.971Z,99167.41
2022-09-27T12:58:29.586Z,99168.53
2022-09-27T13:01:10.000Z,99164.66
2022-09-27T13:03:45.379Z,99151.16
2022-09-27T13:06:41.507Z,99161.69
2022-09-27T13:09:15.977Z,99165.16
2022-09-27T13:11:56.454Z,99172.03
2022-09-27T13:14:25.709Z,99165.97
2022-09-27T13:16:52.485Z,99166.84
2022-09-27T13:19:34.217Z,99167.53
2022-09-27T13:22:00.751Z,99165.78
2022-09-27T13:24:42.135Z,99159.03
2022-09-27T13:27:36.595Z,99164.81
2022-09-27T13:30:12.149Z,99161.00
2022-09-27T13:32:39.545Z,99173.84
2022-09-27T13:35:25.279Z,99170.63
2022-09-27T13:38:01.126Z,99171.53
2022-09-27T13:40:34.475Z,99185.34
2022-09-27T13:43:10.062Z,99185.25
2022-09-27T13:45:43.767Z,99182.84
2022-09-27T13:48:16.360Z,99184.75
2022-09-27T13:50:49.669Z,99191.75
2022-09-27T13:53:35.928Z,99201.59
2022-09-27T13:56:02.476Z,99201.50
2022-09-27T13:58:51.693Z,99202.63
2022-09-27T14:01:28.458Z,99211.44
2022-09-27T14:03:59.574Z,99203.84
2022-09-27T14:06:32.448Z,99206.88
2022-09-27T14:09:04.285Z,99212.63
2022-09-27T14:11:35.118Z,99196.75
2022-09-27T14:14:02.848Z,99197.75
2022-09-27T14:16:33.246Z,99210.59
2022-09-27T14:19:00.149Z,99212.44
2022-09-27T14:21:33.326Z,99208.53
2022-09-27T14:24:24.554Z,99217.34
2022-09-27T14:27:04.984Z,99217.84
2022-09-27T14:29:34.451Z,99239.56
2022-09-27T14:32:05.770Z,99234.91
2022-09-27T14:34:33.072Z,99239.31
2022-09-27T14:37:18.198Z,99227.41
2022-09-27T14:39:53.667Z,99240.66
2022-09-27T14:42:21.719Z,99244.34
2022-09-27T14:44:50.061Z,99249.78
2022-09-27T14:47:22.502Z,99256.63
2022-09-27T14:49:51.245Z,99256.63
2022-09-27T14:52:29.106Z,99264.22
2022-09-27T14:55:17.328Z,99255.59
2022-09-27T14:57:51.294Z,99258.75
2022-09-27T15:00:21.126Z,99253.94
2022-09-27T15:02:50.718Z,99251.03
2022-09-27T15:05:19.052Z,99246.22
2022-09-27T15:07:46.773Z,99244.38
2022-09-27T15:10:18.755Z,99259.91
2022-09-27T15:12:50.135Z,99266.06
2022-09-27T15:15:19.840Z,99272.47
2022-09-27T15:17:46.455Z,99280.13
2022-09-27T15:20:34.893Z,99276.50
2022-09-27T15:23:03.599Z,99270.81
2022-09-27T15:25:35.020Z,99283.59
2022-09-27T15:28:07.135Z,99280.06
2022-09-27T15:30:41.936Z,99285.19
2022-09-27T15:33:19.631Z,99288.50
2022-09-27T15:36:18.119Z,99281.88
2022-09-27T15:38:48.436Z,99289.94
2022-09-27T15:41:16.666Z,99287.59
2022-09-27T15:43:46.075Z,99289.28
2022-09-27T15:46:21.942Z,99276.56
2022-09-27T15:49:26.021Z,99277.75
2022-09-27T15:51:54.846Z,99279.41
2022-09-27T15:54:23.107Z,99277.31
2022-09-27T15:56:55.081Z,99281.28
2022-09-27T15:59:33.904Z,99279.69
2022-09-27T16:02:07.702Z,99265.44
2022-09-27T16:04:34.386Z,99268.38
2022-09-27T16:07:02.120Z,99269.03
2022-09-27T16:09:28.722Z,99269.03
2022-09-27T16:11:55.181Z,99275.28
2022-09-27T16:14:21.678Z,99269.91
2022-09-27T16:16:52.937Z,99270.78
2022-09-27T16:19:19.820Z,99280.44
2022-09-27T16:21:48.445Z,99283.56
2022-09-27T16:24:15.282Z,99281.25
2022-09-27T16:26:41.723Z,99271.06
2022-09-27T16:29:13.337Z,99281.09
2022-09-27T16:31:40.426Z,99281.66
2022-09-27T16:34:09.123Z,99290.66
2022-09-27T16:36:38.838Z,99278.50
2022-09-27T16:39:12.712Z,99296.88
2022-09-27T16:41:43.475Z,99298.06
2022-09-27T16:44:13.235Z,99304.38
2022-09-27T16:46:41.473Z,99313.34
2022-09-27T16:49:31.191Z,99310.81
2022-09-27T16:52:01.428Z,99320.84
2022-09-27T16:54:29.260Z,99324.44
2022-09-27T16:56:59.274Z,99324.84
2022-09-27T16:59:25.956Z,99334.81
2022-09-27T17:01:57.107Z,99335.16
2022-09-27T17:04:25.212Z,99334.47
2022-09-27T17:06:51.961Z,99343.09
2022-09-27T17:09:18.429Z,99341.59
2022-09-27T17:11:44.882Z,99342.56
2022-09-27T17:14:14.400Z,99341.31
2022-09-27T17:16:40.919Z,99338.44
2022-09-27T17:19:08.811Z,99339.72
2022-09-27T17:21:38.232Z,99339.72
2022-09-27T17:24:05.264Z,99337.50
2022-09-27T17:26:31.903Z,99346.31
2022-09-27T17:29:00.792Z,99340.16
2022-09-27T17:31:28.509Z,99337.50
2022-09-27T17:33:57.784Z,99337.13
2022-09-27T17:36:27.121Z,99338.50
2022-09-27T17:38:53.625Z,99337.69
2022-09-27T17:41:24.392Z,99337.00
2022-09-27T17:43:59.169Z,99332.34
2022-09-27T17:46:27.819Z,99339.81
2022-09-27T17:49:12.962Z,99336.81
2022-09-27T17:51:40.244Z,99334.91
2022-09-27T17:54:07.907Z,99338.72
2022-09-27T17:56:38.237Z,99331.63
2022-09-27T17:59:05.759Z,99338.88
2022-09-27T18:01:32.683Z,99343.47
2022-09-27T18:04:01.315Z,99347.91
2022-09-27T18:06:28.441Z,99343.72
2022-09-27T18:08:55.720Z,99339.22
2022-09-27T18:11:33.548Z,99340.84
2022-09-27T18:14:00.425Z,99340.13
2022-09-27T18:16:32.386Z,99344.25
2022-09-27T18:19:00.096Z,99349.34
2022-09-27T18:21:27.052Z,99347.31
2022-09-27T18:23:56.568Z,99350.28
2022-09-27T18:26:23.837Z,99355.72
2022-09-27T18:28:55.553Z,99357.53
2022-09-27T18:31:23.706Z,99367.28
2022-09-27T18:33:50.606Z,99361.38
2022-09-27T18:36:17.238Z,99364.84
2022-09-27T18:38:44.086Z,99362.75
2022-09-27T18:41:16.302Z,99368.06
2022-09-27T18:43:44.523Z,99367.44
2022-09-27T18:46:35.211Z,99368.13
2022-09-27T18:49:04.266Z,99371.69
2022-09-27T18:51:31.005Z,99369.19
2022-09-27T18:54:02.637Z,99375.06
2022-09-27T18:56:29.901Z,99377.53
2022-09-27T18:58:56.790Z,99372.91
2022-09-27T19:01:25.264Z,99367.56
2022-09-27T19:03:52.720Z,99375.16
2022-09-27T19:06:21.571Z,99378.41
2022-09-27T19:08:53.578Z,99378.84
2022-09-27T19:11:20.095Z,99376.41
2022-09-27T19:13:51.558Z,99377.50
2022-09-27T19:16:18.348Z,99369.22
2022-09-27T19:18:44.861Z,99380.38
2022-09-27T19:21:16.417Z,99388.00
2022-09-27T19:23:43.231Z,99387.16
2022-09-27T19:26:13.838Z,99380.03
2022-09-27T19:28:41.926Z,99383.50
2022-09-27T19:31:13.456Z,99376.16
2022-09-27T19:33:40.214Z,99380.25
2022-09-27T19:36:09.169Z,99379.47
2022-09-27T19:38:39.237Z,99387.22
2022-09-27T19:41:07.224Z,99383.78
2022-09-27T19:43:33.917Z,99390.88
2022-09-27T19:46:12.235Z,99388.84
2022-09-27T19:48:39.044Z,99393.75
2022-09-27T19:51:06.245Z,99398.25
2022-09-27T19:53:34.292Z,99394.22
2022-09-27T19:56:02.337Z,99397.91
2022-09-27T19:58:30.199Z,99401.78
2022-09-27T20:01:04.115Z,99401.13
2022-09-27T20:03:30.642Z,99400.09
2022-09-27T20:05:58.287Z,99394.81
2022-09-27T20:08:25.829Z,99393.78
2022-09-27T20:11:06.905Z,99387.75
2022-09-27T20:13:34.717Z,99389.97
2022-09-27T20:16:21.720Z,99396.69
2022-09-27T20:18:50.296Z,99401.16
2022-09-27T20:21:17.627Z,99401.97
2022-09-27T20:23:44.102Z,99395.28
2022-09-27T20:26:15.570Z,99388.75
2022-09-27T20:28:43.900Z,99385.31
2022-09-27T20:31:11.811Z,99394.28
2022-09-27T20:33:41.153Z,99392.06
2022-09-27T20:36:18.275Z,99393.84
2022-09-27T20:38:46.851Z,99394.66
2022-09-27T20:41:16.330Z,99392.66
2022-09-27T20:43:42.792Z,99399.97
2022-09-27T20:46:14.586Z,99399.75
2022-09-27T20:48:41.189Z,99394.31
2022-09-27T20:51:08.162Z,99393.50
2022-09-27T20:53:34.774Z,99397.50
2022-09-27T20:56:04.480Z,99390.59
2022-09-27T20:58:31.947Z,99395.13
2022-09-27T21:01:06.181Z,99399.19
2022-09-27T21:03:32.928Z,99393.47
2022-09-27T21:05:59.575Z,99394.09
2022-09-27T21:08:29.040Z,99395.91
2022-09-27T21:10:55.492Z,99390.22
2022-09-27T21:13:21.936Z,99396.31
2022-09-27T21:15:48.565Z,99396.53
2022-09-27T21:18:15.090Z,99394.28
2022-09-27T21:20:41.544Z,99394.09
2022-09-27T21:23:08.027Z,99390.63
2022-09-27T21:25:34.499Z,99385.94
2022-09-27T21:28:04.136Z,99387.34
2022-09-27T21:30:31.307Z,99396.69
2022-09-27T21:32:57.842Z,99396.88
2022-09-27T21:35:24.342Z,99396.91
2022-09-27T21:37:50.805Z,99391.41
2022-09-27T21:40:17.346Z,99397.53
2022-09-27T21:42:43.900Z,99387.19
2022-09-27T21:45:10.895Z,99394.69
2022-09-27T21:47:37.425Z,99386.16
2022-09-27T21:50:04.032Z,99384.13
2022-09-27T21:52:30.544Z,99384.13
2022-09-27T21:54:57.042Z,99385.94
2022-09-27T21:57:23.491Z,99387.56
2022-09-27T21:59:49.952Z,99387.66
2022-09-27T22:02:19.209Z,99391.94
2022-09-27T22:04:45.928Z,99386.69
2022-09-27T22:07:12.379Z,99395.53
2022-09-27T22:09:38.877Z,99403.81
2022-09-27T22:12:06.187Z,99407.91
2022-09-27T22:14:34.193Z,99409.53
2022-09-27T22:17:00.747Z,99401.09
2022-09-27T22:19:27.217Z,99406.91
2022-09-27T22:21:53.669Z,99401.16
2022-09-27T22:24:20.200Z,99406.03
2022-09-27T22:26:49.638Z,99408.97
2022-09-27T22:29:16.440Z,99408.25
2022-09-27T22:31:43.194Z,99412.56
2022-09-27T22:34:16.997Z,99415.78
2022-09-27T22:36:43.563Z,99408.50
2022-09-27T22:39:10.238Z,99398.53
2022-09-27T22:41:36.767Z,99409.34
2022-09-27T22:44:03.261Z,99411.16
2022-09-27T22:46:29.769Z,99409.75
2022-09-27T22:48:56.266Z,99406.44
2022-09-27T22:51:22.718Z,99406.59
2022-09-27T22:53:49.503Z,99397.59
2022-09-27T22:56:20.321Z,99402.50
2022-09-27T22:58:47.992Z,99398.19
2022-09-27T23:01:21.284Z,99398.25
2022-09-27T23:03:49.390Z,99397.16
2022-09-27T23:06:17.095Z,99396.59
2022-09-27T23:08:43.725Z,99398.75
2022-09-27T23:11:12.398Z,99397.88
2022-09-27T23:13:41.276Z,99404.25
2022-09-27T23:16:10.378Z,99400.75
2022-09-27T23:18:38.064Z,99407.00
2022-09-27T23:21:08.209Z,99403.28
2022-09-27T23:23:41.568Z,99403.28
2022-09-27T23:26:10.219Z,99399.91
2022-09-27T23:28:36.668Z,99398.75
2022-09-27T23:31:08.255Z,99403.06
2022-09-27T23:33:36.256Z,99399.97
2022-09-27T23:36:03.226Z,99399.19
2022-09-27T23:38:31.279Z,99395.38
2022-09-27T23:40:58.529Z,99398.50
2022-09-27T23:43:25.138Z,99392.22
2022-09-27T23:45:55.937Z,99398.69
2022-09-27T23:48:22.805Z,99395.81
2022-09-27T23:50:49.514Z,99389.81
2022-09-27T23:53:15.986Z,99391.91
2022-09-27T23:55:42.494Z,99399.88
2022-09-27T23:58:09.040Z,99396.38
